createdAt,value
2023-04-04T00:00:22.759Z,20.10
2023-04-04T00:02:50.033Z,21.00
2023-04-04T00:05:17.683Z,20.90
2023-04-04T00:07:48.484Z,21.00
2023-04-04T00:10:15.843Z,21.40
2023-04-04T00:12:44.048Z,21.00
2023-04-04T00:15:12.166Z,21.00
2023-04-04T00:17:39.335Z,20.50
2023-04-04T00:20:07.539Z,20.00
2023-04-04T00:22:35.224Z,20.00
2023-04-04T00:25:02.255Z,19.80
2023-04-04T00:27:29.193Z,18.70
2023-04-04T00:29:56.116Z,18.50
2023-04-04T00:32:23.427Z,19.00
2023-04-04T00:34:54.206Z,18.50
2023-04-04T00:37:21.705Z,18.30
2023-04-04T00:39:50.037Z,19.00
2023-04-04T00:42:17.986Z,20.20
2023-04-04T00:44:45.418Z,20.00
2023-04-04T00:47:12.977Z,20.40
2023-04-04T00:49:39.936Z,21.10
2023-04-04T00:52:07.890Z,21.00
2023-04-04T00:54:35.694Z,21.30
2023-04-04T00:57:05.355Z,22.90
2023-04-04T00:59:33.245Z,23.90
2023-04-04T01:02:01.407Z,24.70
2023-04-04T01:04:29.404Z,26.20
2023-04-04T01:06:57.088Z,26.40
2023-04-04T01:09:24.541Z,27.50
2023-04-04T01:11:52.405Z,28.20
2023-04-04T01:14:19.753Z,29.40
2023-04-04T01:16:48.503Z,30.50
2023-04-04T01:19:32.434Z,31.20
2023-04-04T01:22:03.205Z,31.30
2023-04-04T01:24:34.754Z,32.10
2023-04-04T01:27:04.728Z,32.80
2023-04-04T01:29:33.818Z,33.30
2023-04-04T01:32:09.760Z,33.90
2023-04-04T01:34:42.781Z,34.20
2023-04-04T01:37:24.552Z,34.30
2023-04-04T01:40:05.342Z,34.50
2023-04-04T01:42:34.716Z,33.60
2023-04-04T01:45:02.300Z,33.40
2023-04-04T01:47:41.603Z,32.60
2023-04-04T01:50:12.798Z,32.60
2023-04-04T01:52:40.029Z,33.20
2023-04-04T01:55:08.661Z,32.60
2023-04-04T01:57:36.422Z,33.40
2023-04-04T02:00:05.893Z,33.50
2023-04-04T02:02:42.958Z,33.60
2023-04-04T02:05:11.152Z,33.40
2023-04-04T02:07:38.595Z,33.30
2023-04-04T02:10:13.346Z,33.70
2023-04-04T02:12:40.947Z,33.60
2023-04-04T02:15:09.210Z,33.60
2023-04-04T02:17:36.143Z,33.90
2023-04-04T02:20:04.037Z,34.10
2023-04-04T02:22:30.942Z,35.10
2023-04-04T02:24:58.088Z,33.70
2023-04-04T02:27:25.044Z,33.40
2023-04-04T02:29:52.651Z,32.70
2023-04-04T02:32:19.668Z,33.20
2023-04-04T02:34:47.640Z,34.60
2023-04-04T02:37:14.597Z,34.50
2023-04-04T02:39:42.911Z,34.50
2023-04-04T02:42:09.883Z,35.90
2023-04-04T02:44:37.180Z,37.20
2023-04-04T02:47:06.332Z,38.30
2023-04-04T02:49:33.448Z,39.00
2023-04-04T02:52:01.173Z,39.00
2023-04-04T02:54:33.143Z,39.80
2023-04-04T02:57:00.966Z,41.10
2023-04-04T02:59:28.499Z,40.20
2023-04-04T03:01:56.138Z,40.50
2023-04-04T03:04:23.535Z,41.60
2023-04-04T03:06:50.937Z,42.10
2023-04-04T03:09:17.918Z,42.30
2023-04-04T03:11:44.803Z,42.70
2023-04-04T03:14:12.169Z,43.40
2023-04-04T03:16:40.231Z,43.30
2023-04-04T03:19:07.614Z,44.30
2023-04-04T03:21:34.561Z,44.20
2023-04-04T03:24:01.782Z,44.20
2023-04-04T03:26:29.480Z,45.10
2023-04-04T03:28:57.150Z,44.70
2023-04-04T03:31:25.998Z,44.20
2023-04-04T03:33:53.265Z,44.20
2023-04-04T03:36:22.797Z,44.90
2023-04-04T03:38:50.781Z,45.80
2023-04-04T03:41:17.845Z,46.40
2023-04-04T03:43:45.666Z,46.80
2023-04-04T03:46:12.749Z,46.50
2023-04-04T03:48:40.238Z,46.60
2023-04-04T03:51:09.892Z,46.90
2023-04-04T03:53:37.874Z,48.10
2023-04-04T03:56:05.077Z,48.50
2023-04-04T03:58:32.125Z,48.50
2023-04-04T04:00:59.179Z,48.80
2023-04-04T04:03:30.210Z,48.50
2023-04-04T04:05:57.385Z,48.30
2023-04-04T04:08:25.280Z,48.60
2023-04-04T04:10:54.559Z,48.70
2023-04-04T04:13:21.705Z,48.70
2023-04-04T04:15:49.979Z,48.80
2023-04-04T04:18:21.344Z,49.80
2023-04-04T04:20:49.553Z,51.10
2023-04-04T04:23:16.648Z,52.20
2023-04-04T04:25:48.009Z,53.00
2023-04-04T04:28:18.034Z,51.70
2023-04-04T04:30:46.233Z,51.40
2023-04-04T04:33:15.557Z,50.50
2023-04-04T04:35:55.077Z,51.50
2023-04-04T04:38:24.107Z,51.50
2023-04-04T04:40:51.379Z,52.10
2023-04-04T04:43:26.175Z,52.00
2023-04-04T04:45:53.164Z,51.60
2023-04-04T04:48:20.312Z,51.10
2023-04-04T04:50:52.078Z,51.80
2023-04-04T04:53:30.700Z,53.00
2023-04-04T04:55:58.786Z,53.70
2023-04-04T04:58:27.553Z,54.70
2023-04-04T05:00:58.065Z,55.10
2023-04-04T05:03:32.277Z,55.30
2023-04-04T05:05:59.718Z,54.90
2023-04-04T05:08:27.302Z,55.30
2023-04-04T05:11:04.841Z,55.50
2023-04-04T05:13:33.502Z,54.80
2023-04-04T05:16:02.034Z,54.10
2023-04-04T05:18:29.858Z,55.10
2023-04-04T05:20:57.553Z,55.70
2023-04-04T05:23:27.965Z,55.60
2023-04-04T05:25:55.097Z,56.20
2023-04-04T05:28:23.747Z,56.90
2023-04-04T05:30:53.877Z,56.90
2023-04-04T05:33:28.792Z,56.20
2023-04-04T05:36:06.405Z,55.50
2023-04-04T05:38:39.721Z,55.90
2023-04-04T05:41:07.628Z,56.50
2023-04-04T05:43:34.656Z,56.30
2023-04-04T05:46:07.503Z,54.50
2023-04-04T05:48:43.220Z,53.40
2023-04-04T05:51:11.275Z,53.70
2023-04-04T05:53:47.740Z,53.20
2023-04-04T05:56:22.186Z,53.50
2023-04-04T05:58:49.389Z,53.20
2023-04-04T06:01:18.505Z,53.20
2023-04-04T06:03:46.402Z,54.10
2023-04-04T06:06:18.339Z,54.10
2023-04-04T06:08:53.594Z,53.50
2023-04-04T06:11:24.055Z,54.00
2023-04-04T06:13:55.166Z,53.00
2023-04-04T06:16:23.965Z,53.20
2023-04-04T06:18:51.059Z,52.30
2023-04-04T06:21:18.115Z,50.90
2023-04-04T06:23:45.081Z,49.50
2023-04-04T06:26:13.408Z,48.20
2023-04-04T06:28:51.939Z,49.10
2023-04-04T06:31:24.356Z,50.30
2023-04-04T06:33:57.660Z,50.00
2023-04-04T06:36:25.301Z,49.70
2023-04-04T06:38:52.665Z,48.90
2023-04-04T06:41:22.892Z,47.80
2023-04-04T06:43:52.388Z,47.50
2023-04-04T06:46:19.443Z,46.60
2023-04-04T06:48:47.171Z,45.60
2023-04-04T06:51:16.628Z,44.60
2023-04-04T06:53:45.692Z,44.70
2023-04-04T06:56:12.947Z,45.30
2023-04-04T06:58:40.189Z,45.60
2023-04-04T07:01:07.743Z,46.20
2023-04-04T07:03:34.841Z,45.80
2023-04-04T07:06:05.476Z,46.00
2023-04-04T07:08:36.867Z,44.90
2023-04-04T07:11:06.462Z,44.20
2023-04-04T07:13:33.679Z,43.10
2023-04-04T07:16:02.123Z,41.10
2023-04-04T07:18:29.107Z,40.40
2023-04-04T07:20:56.171Z,38.20
2023-04-04T07:23:23.176Z,36.50
2023-04-04T07:25:51.105Z,35.00
2023-04-04T07:28:18.163Z,35.30
2023-04-04T07:30:45.138Z,33.10
2023-04-04T07:33:12.255Z,31.30
2023-04-04T07:35:39.315Z,31.00
2023-04-04T07:38:06.568Z,32.20
2023-04-04T07:40:33.654Z,31.60
2023-04-04T07:43:03.749Z,30.00
2023-04-04T07:45:30.757Z,27.00
2023-04-04T07:47:58.252Z,22.30
2023-04-04T07:50:25.222Z,20.20
2023-04-04T07:52:52.750Z,18.90
2023-04-04T07:55:20.261Z,18.60
2023-04-04T07:57:47.625Z,18.70
2023-04-04T08:00:15.210Z,17.40
2023-04-04T08:02:43.984Z,14.50
2023-04-04T08:05:11.080Z,12.10
2023-04-04T08:07:38.150Z,12.10
2023-04-04T08:10:06.316Z,11.60
2023-04-04T08:12:33.421Z,9.50
2023-04-04T08:15:00.305Z,8.30
2023-04-04T08:17:27.397Z,6.60
2023-04-04T08:19:54.554Z,7.10
2023-04-04T08:22:21.470Z,6.80
2023-04-04T08:24:49.844Z,6.70
2023-04-04T08:27:16.968Z,6.20
2023-04-04T08:29:45.522Z,5.60
2023-04-04T08:32:14.856Z,2.50
2023-04-04T08:34:42.431Z,1.50
2023-04-04T08:37:09.724Z,1.50
2023-04-04T08:39:37.133Z,1.20
2023-04-04T08:42:06.750Z,1.00
2023-04-04T08:44:37.529Z,1.00
2023-04-04T08:47:05.818Z,1.00
2023-04-04T08:49:37.380Z,1.00
2023-04-04T08:52:06.435Z,1.00
2023-04-04T08:54:35.900Z,1.00
2023-04-04T08:57:04.211Z,1.00
2023-04-04T08:59:31.803Z,1.00
2023-04-04T09:02:08.653Z,1.00
2023-04-04T09:04:35.996Z,1.00
2023-04-04T09:07:04.149Z,1.00
2023-04-04T09:09:32.384Z,1.00
2023-04-04T09:12:03.521Z,1.00
2023-04-04T09:14:32.510Z,1.00
2023-04-04T09:17:00.164Z,1.00
2023-04-04T09:19:27.821Z,1.00
2023-04-04T09:21:54.789Z,1.00
2023-04-04T09:24:21.677Z,1.00
2023-04-04T09:26:53.742Z,1.00
2023-04-04T09:29:22.093Z,1.00
2023-04-04T09:31:49.633Z,1.00
2023-04-04T09:34:19.066Z,1.00
2023-04-04T09:36:48.360Z,1.00
2023-04-04T09:39:18.077Z,1.00
2023-04-04T09:41:46.006Z,1.00
2023-04-04T09:44:14.046Z,1.00
2023-04-04T09:46:41.571Z,1.00
2023-04-04T09:49:13.500Z,1.00
2023-04-04T09:51:42.616Z,1.00
2023-04-04T09:54:28.899Z,1.00
2023-04-04T09:56:57.150Z,1.00
2023-04-04T09:59:24.712Z,1.00
2023-04-04T10:01:54.544Z,1.00
2023-04-04T10:04:21.897Z,1.00
2023-04-04T10:06:48.857Z,1.00
2023-04-04T10:09:18.665Z,1.00
2023-04-04T10:11:45.666Z,1.00
2023-04-04T10:14:12.711Z,1.00
2023-04-04T10:16:45.440Z,1.00
2023-04-04T10:19:15.444Z,1.00
2023-04-04T10:21:42.982Z,1.00
2023-04-04T10:24:10.281Z,1.00
2023-04-04T10:26:37.827Z,1.00
2023-04-04T10:29:05.975Z,1.00
2023-04-04T10:31:37.175Z,1.00
2023-04-04T10:34:25.268Z,1.00
2023-04-04T10:37:03.553Z,1.00
2023-04-04T10:39:51.306Z,1.00
2023-04-04T10:42:19.773Z,1.00
2023-04-04T10:44:47.652Z,1.00
2023-04-04T10:47:18.461Z,1.00
2023-04-04T10:49:47.059Z,1.00
2023-04-04T10:52:21.470Z,1.00
2023-04-04T10:54:54.675Z,1.00
2023-04-04T10:57:23.252Z,1.00
2023-04-04T11:00:05.741Z,1.00
2023-04-04T11:02:59.403Z,1.00
2023-04-04T11:05:37.483Z,1.00
2023-04-04T11:08:09.884Z,1.00
2023-04-04T11:10:41.983Z,1.00
2023-04-04T11:13:22.452Z,1.00
2023-04-04T11:15:52.937Z,1.00
2023-04-04T11:18:30.611Z,1.00
2023-04-04T11:21:03.641Z,1.00
2023-04-04T11:24:04.667Z,1.00
2023-04-04T11:26:31.610Z,1.00
2023-04-04T11:29:04.068Z,1.00
2023-04-04T11:31:44.045Z,1.00
2023-04-04T11:34:16.125Z,1.00
2023-04-04T11:36:45.119Z,1.00
2023-04-04T11:39:31.431Z,1.00
2023-04-04T11:42:11.518Z,1.00
2023-04-04T11:45:00.486Z,1.00
2023-04-04T11:47:27.899Z,1.00
2023-04-04T11:49:57.604Z,1.00
2023-04-04T11:52:25.530Z,1.00
2023-04-04T11:54:53.035Z,1.00
2023-04-04T11:57:21.220Z,1.00
2023-04-04T11:59:50.612Z,1.00
2023-04-04T12:02:32.165Z,1.00
2023-04-04T12:04:59.765Z,1.00
2023-04-04T12:07:30.671Z,1.00
2023-04-04T12:09:58.723Z,1.00
2023-04-04T12:12:28.389Z,1.00
2023-04-04T12:15:03.401Z,1.00
2023-04-04T12:17:44.122Z,1.00
2023-04-04T12:20:11.386Z,1.00
2023-04-04T12:22:39.782Z,1.00
2023-04-04T12:25:10.498Z,1.00
2023-04-04T12:27:38.606Z,1.00
2023-04-04T12:30:11.029Z,1.00
2023-04-04T12:32:38.084Z,1.00
2023-04-04T12:35:06.151Z,1.00
2023-04-04T12:37:34.301Z,1.00
2023-04-04T12:40:02.481Z,1.00
2023-04-04T12:42:32.142Z,1.00
2023-04-04T12:45:02.119Z,1.00
2023-04-04T12:47:31.479Z,1.00
2023-04-04T12:49:58.514Z,1.00
2023-04-04T12:52:30.348Z,1.00
2023-04-04T12:55:07.484Z,1.00
2023-04-04T12:57:36.816Z,1.00
2023-04-04T13:00:07.837Z,1.00
2023-04-04T13:02:36.607Z,1.00
2023-04-04T13:05:07.244Z,1.00
2023-04-04T13:07:44.539Z,1.00
2023-04-04T13:10:15.034Z,1.00
2023-04-04T13:13:00.287Z,1.00
2023-04-04T13:15:52.640Z,1.00
2023-04-04T13:18:25.117Z,1.00
2023-04-04T13:20:54.128Z,1.00
2023-04-04T13:23:22.396Z,1.00
2023-04-04T13:25:49.520Z,1.00
2023-04-04T13:28:16.698Z,1.00
2023-04-04T13:30:48.792Z,1.00
2023-04-04T13:33:17.654Z,1.00
2023-04-04T13:35:46.272Z,1.00
2023-04-04T13:38:13.774Z,1.00
2023-04-04T13:40:41.317Z,1.00
2023-04-04T13:43:09.077Z,1.00
2023-04-04T13:45:36.234Z,1.00
2023-04-04T13:48:04.494Z,1.00
2023-04-04T13:50:32.994Z,1.00
2023-04-04T13:53:00.051Z,1.00
2023-04-04T13:55:28.134Z,1.00
2023-04-04T13:57:55.161Z,1.00
2023-04-04T14:00:24.997Z,1.00
2023-04-04T14:02:54.221Z,1.00
2023-04-04T14:05:23.076Z,1.00
2023-04-04T14:07:50.372Z,1.00
2023-04-04T14:10:17.857Z,1.00
2023-04-04T14:12:45.017Z,1.00
2023-04-04T14:15:12.387Z,1.00
2023-04-04T14:17:39.486Z,1.00
2023-04-04T14:20:07.959Z,1.00
2023-04-04T14:22:35.456Z,1.00
2023-04-04T14:25:02.799Z,1.00
2023-04-04T14:27:29.761Z,1.00
2023-04-04T14:29:56.722Z,1.00
2023-04-04T14:32:24.928Z,1.00
2023-04-04T14:34:52.125Z,1.00
2023-04-04T14:37:19.111Z,1.00
2023-04-04T14:39:47.036Z,1.00
2023-04-04T14:42:14.284Z,1.00
2023-04-04T14:44:42.247Z,1.00
2023-04-04T14:47:09.654Z,1.00
2023-04-04T14:49:36.665Z,1.00
2023-04-04T14:52:04.060Z,1.00
2023-04-04T14:54:31.184Z,1.00
2023-04-04T14:56:58.591Z,1.00
2023-04-04T14:59:28.058Z,1.00
2023-04-04T15:01:55.290Z,1.00
2023-04-04T15:04:22.563Z,1.00
2023-04-04T15:06:49.576Z,1.00
2023-04-04T15:09:17.335Z,1.00
2023-04-04T15:11:44.427Z,1.00
2023-04-04T15:14:11.479Z,1.00
2023-04-04T15:16:38.671Z,1.00
2023-04-04T15:19:05.859Z,1.00
2023-04-04T15:21:32.876Z,1.00
2023-04-04T15:23:59.893Z,1.00
2023-04-04T15:26:26.877Z,1.00
2023-04-04T15:28:53.991Z,1.00
2023-04-04T15:31:21.096Z,1.00
2023-04-04T15:33:48.503Z,1.00
2023-04-04T15:36:15.611Z,1.00
2023-04-04T15:38:42.645Z,1.00
2023-04-04T15:41:10.225Z,1.00
2023-04-04T15:43:38.156Z,1.00
2023-04-04T15:46:05.583Z,1.00
2023-04-04T15:48:34.317Z,1.00
2023-04-04T15:51:03.125Z,1.00
2023-04-04T15:53:36.416Z,1.00
2023-04-04T15:56:03.479Z,1.00
2023-04-04T15:58:30.491Z,1.00
2023-04-04T16:00:57.957Z,1.00
2023-04-04T16:03:25.791Z,1.00
2023-04-04T16:05:53.084Z,1.00
2023-04-04T16:08:20.282Z,1.00
2023-04-04T16:10:47.393Z,1.00
2023-04-04T16:13:14.695Z,1.00
2023-04-04T16:15:41.657Z,1.00
2023-04-04T16:18:09.132Z,1.00
2023-04-04T16:20:39.630Z,1.00
2023-04-04T16:23:06.697Z,1.00
2023-04-04T16:25:33.748Z,1.00
2023-04-04T16:28:00.916Z,1.00
2023-04-04T16:30:29.050Z,1.00
2023-04-04T16:32:56.100Z,1.00
2023-04-04T16:35:23.848Z,1.00
2023-04-04T16:37:51.042Z,1.00
2023-04-04T16:40:18.047Z,1.00
2023-04-04T16:42:45.177Z,1.00
2023-04-04T16:45:12.407Z,1.00
2023-04-04T16:47:42.315Z,1.00
2023-04-04T16:50:09.879Z,1.00
2023-04-04T16:52:36.798Z,1.00
2023-04-04T16:55:04.036Z,1.00
2023-04-04T16:57:31.205Z,1.00
2023-04-04T16:59:58.260Z,1.00
2023-04-04T17:02:25.596Z,1.00
2023-04-04T17:04:52.850Z,1.00
2023-04-04T17:07:21.110Z,1.00
2023-04-04T17:09:48.769Z,1.00
2023-04-04T17:12:16.403Z,1.00
2023-04-04T17:14:43.819Z,1.00
2023-04-04T17:17:13.832Z,1.00
2023-04-04T17:19:40.922Z,1.00
2023-04-04T17:22:09.302Z,1.00
2023-04-04T17:24:36.615Z,1.00
2023-04-04T17:27:05.098Z,1.00
2023-04-04T17:29:32.036Z,1.00
2023-04-04T17:31:59.803Z,1.00
2023-04-04T17:34:27.295Z,1.00
2023-04-04T17:36:54.834Z,1.00
2023-04-04T17:39:22.452Z,1.00
2023-04-04T17:41:50.819Z,1.00
2023-04-04T17:44:20.412Z,1.00
2023-04-04T17:46:47.768Z,1.00
2023-04-04T17:49:19.987Z,1.00
2023-04-04T17:51:48.616Z,1.00
2023-04-04T17:54:15.584Z,1.00
2023-04-04T17:56:46.953Z,1.00
2023-04-04T17:59:14.967Z,1.00
2023-04-04T18:01:42.159Z,1.00
2023-04-04T18:04:09.446Z,1.00
2023-04-04T18:06:39.520Z,1.00
2023-04-04T18:09:09.182Z,1.00
2023-04-04T18:11:38.371Z,1.00
2023-04-04T18:14:05.701Z,1.00
2023-04-04T18:16:38.944Z,1.00
2023-04-04T18:19:07.341Z,1.00
2023-04-04T18:21:34.288Z,1.00
2023-04-04T18:24:01.758Z,1.00
2023-04-04T18:26:29.931Z,1.00
2023-04-04T18:28:56.805Z,1.00
2023-04-04T18:31:27.965Z,1.00
2023-04-04T18:33:56.468Z,1.00
2023-04-04T18:36:23.707Z,1.00
2023-04-04T18:38:51.277Z,1.00
2023-04-04T18:41:18.336Z,1.00
2023-04-04T18:43:46.625Z,1.00
2023-04-04T18:46:13.554Z,1.00
2023-04-04T18:48:41.463Z,1.00
2023-04-04T18:51:08.613Z,1.00
2023-04-04T18:53:35.764Z,1.00
2023-04-04T18:56:02.706Z,1.00
2023-04-04T18:58:29.640Z,1.00
2023-04-04T19:00:58.627Z,1.00
2023-04-04T19:03:26.530Z,1.00
2023-04-04T19:06:00.102Z,1.00
2023-04-04T19:08:28.122Z,1.00
2023-04-04T19:10:59.634Z,1.00
2023-04-04T19:13:30.122Z,1.00
2023-04-04T19:15:58.970Z,1.00
2023-04-04T19:18:28.083Z,1.00
2023-04-04T19:20:55.618Z,1.00
2023-04-04T19:23:22.600Z,1.00
2023-04-04T19:25:51.572Z,1.00
2023-04-04T19:28:19.301Z,1.00
2023-04-04T19:30:48.984Z,1.00
2023-04-04T19:33:19.090Z,1.00
2023-04-04T19:36:04.645Z,1.00
2023-04-04T19:38:37.816Z,1.00
2023-04-04T19:41:18.723Z,1.00
2023-04-04T19:43:48.752Z,1.40
2023-04-04T19:46:27.184Z,1.60
2023-04-04T19:49:05.027Z,2.00
2023-04-04T19:51:39.009Z,2.20
2023-04-04T19:54:15.970Z,2.80
2023-04-04T19:56:46.416Z,2.70
2023-04-04T19:59:53.582Z,3.30
2023-04-04T20:02:51.507Z,4.30
2023-04-04T20:05:29.457Z,3.80
2023-04-04T20:07:56.508Z,4.20
2023-04-04T20:10:41.859Z,4.70
2023-04-04T20:13:09.874Z,5.10
2023-04-04T20:15:47.720Z,5.70
2023-04-04T20:18:25.558Z,5.70
2023-04-04T20:21:10.102Z,5.90
2023-04-04T20:23:50.358Z,6.10
2023-04-04T20:26:38.288Z,6.70
2023-04-04T20:29:11.523Z,6.70
2023-04-04T20:31:51.742Z,6.40
2023-04-04T20:34:33.745Z,6.50
2023-04-04T20:37:08.592Z,6.40
2023-04-04T20:39:51.702Z,7.20
2023-04-04T20:42:31.800Z,7.00
2023-04-04T20:45:14.024Z,7.60
2023-04-04T20:47:45.570Z,7.90
2023-04-04T20:50:21.098Z,8.00
2023-04-04T20:52:54.802Z,8.10
2023-04-04T20:55:25.479Z,8.00
2023-04-04T20:57:54.428Z,8.40
2023-04-04T21:00:31.353Z,9.40
2023-04-04T21:03:08.631Z,9.70
2023-04-04T21:05:38.733Z,10.00
2023-04-04T21:08:38.921Z,10.00
2023-04-04T21:11:07.015Z,10.20
2023-04-04T21:13:36.944Z,10.50
2023-04-04T21:16:11.958Z,11.10
2023-04-04T21:18:40.616Z,11.30
2023-04-04T21:21:16.826Z,11.50
2023-04-04T21:24:00.883Z,12.20
2023-04-04T21:26:28.821Z,11.50
2023-04-04T21:28:59.803Z,12.20
2023-04-04T21:31:33.510Z,12.10
2023-04-04T21:34:12.153Z,12.60
2023-04-04T21:36:44.000Z,13.30
2023-04-04T21:39:30.751Z,13.60
2023-04-04T21:41:59.914Z,14.20
2023-04-04T21:44:29.566Z,13.50
2023-04-04T21:46:57.284Z,13.70
2023-04-04T21:49:25.344Z,14.40
2023-04-04T21:51:52.684Z,14.70
2023-04-04T21:54:19.914Z,14.60
2023-04-04T21:56:47.078Z,15.00
2023-04-04T21:59:14.108Z,16.00
2023-04-04T22:01:41.408Z,16.30
2023-04-04T22:04:08.733Z,17.00
2023-04-04T22:06:37.490Z,18.50
2023-04-04T22:09:05.378Z,19.50
2023-04-04T22:11:34.697Z,20.20
2023-04-04T22:14:06.986Z,20.60
2023-04-04T22:16:55.011Z,21.20
2023-04-04T22:19:23.459Z,21.50
2023-04-04T22:21:50.409Z,22.10
2023-04-04T22:24:18.542Z,22.30
2023-04-04T22:26:45.992Z,22.90
2023-04-04T22:29:13.248Z,23.30
2023-04-04T22:31:40.410Z,23.90
2023-04-04T22:34:07.532Z,25.40
2023-04-04T22:36:36.444Z,26.20
2023-04-04T22:39:03.508Z,26.20
2023-04-04T22:41:30.570Z,26.00
2023-04-04T22:43:58.234Z,26.00
2023-04-04T22:46:26.681Z,26.10
2023-04-04T22:49:14.238Z,26.70
2023-04-04T22:51:45.131Z,27.10
2023-04-04T22:54:15.202Z,28.00
2023-04-04T22:56:43.220Z,28.20
2023-04-04T22:59:10.453Z,28.70
2023-04-04T23:01:37.565Z,29.70
2023-04-04T23:04:04.739Z,29.90
2023-04-04T23:06:32.019Z,29.80
2023-04-04T23:08:59.177Z,30.30
2023-04-04T23:11:27.537Z,30.40
2023-04-04T23:13:57.151Z,31.20
2023-04-04T23:16:26.387Z,31.50
2023-04-04T23:18:53.543Z,32.00
2023-04-04T23:21:22.073Z,32.80
2023-04-04T23:23:49.278Z,32.60
2023-04-04T23:26:16.327Z,32.70
2023-04-04T23:28:43.390Z,32.50
2023-04-04T23:31:10.694Z,32.10
2023-04-04T23:33:38.005Z,32.50
2023-04-04T23:36:05.446Z,33.80
2023-04-04T23:38:32.878Z,33.90
2023-04-04T23:40:59.844Z,35.00
2023-04-04T23:43:26.987Z,35.60
2023-04-04T23:45:54.129Z,36.00
2023-04-04T23:48:22.325Z,36.90
2023-04-04T23:50:50.201Z,36.00
2023-04-04T23:53:17.389Z,35.50
2023-04-04T23:55:44.330Z,35.90
2023-04-04T23:58:11.350Z,37.00
